createdAt,value
2018-07-12T00:02:13.201Z,20.70
2018-07-12T00:04:41.128Z,20.33
2018-07-12T00:07:09.013Z,22.33
2018-07-12T00:09:36.877Z,20.97
2018-07-12T00:12:04.756Z,21.57
2018-07-12T00:14:32.720Z,21.30
2018-07-12T00:17:00.565Z,22.27
2018-07-12T00:19:28.489Z,21.70
2018-07-12T00:21:56.542Z,22.47
2018-07-12T00:24:24.413Z,22.37
2018-07-12T00:26:52.248Z,21.10
2018-07-12T00:29:20.252Z,22.20
2018-07-12T00:31:48.308Z,21.37
2018-07-12T00:34:16.200Z,22.00
2018-07-12T00:36:44.120Z,22.70
2018-07-12T00:39:12.027Z,23.43
2018-07-12T00:41:39.897Z,24.30
2018-07-12T00:44:07.741Z,23.07
2018-07-12T00:46:35.672Z,24.30
2018-07-12T00:49:03.535Z,23.67
2018-07-12T00:51:31.760Z,25.73
2018-07-12T00:53:59.612Z,26.30
2018-07-12T00:56:27.460Z,24.90
2018-07-12T00:58:55.329Z,24.90
2018-07-12T01:01:23.180Z,25.13
2018-07-12T01:03:51.079Z,25.23
2018-07-12T01:06:18.947Z,25.10
2018-07-12T01:08:46.813Z,25.83
2018-07-12T01:11:14.715Z,24.67
2018-07-12T01:13:42.582Z,24.83
2018-07-12T01:16:10.472Z,26.30
2018-07-12T01:18:38.414Z,26.50
2018-07-12T01:21:06.364Z,26.80
2018-07-12T01:23:34.197Z,26.73
2018-07-12T01:26:02.116Z,26.53
2018-07-12T01:28:29.963Z,26.10
2018-07-12T01:30:57.860Z,25.30
2018-07-12T01:33:25.695Z,27.97
2018-07-12T01:35:53.603Z,26.80
2018-07-12T01:38:21.464Z,27.37
2018-07-12T01:40:49.351Z,28.30
2018-07-12T01:43:17.212Z,30.27
2018-07-12T01:45:45.056Z,28.67
2018-07-12T01:48:13.368Z,29.97
2018-07-12T01:50:41.326Z,28.33
2018-07-12T01:53:09.224Z,28.37
2018-07-12T01:55:37.093Z,30.43
2018-07-12T01:58:04.972Z,29.87
2018-07-12T02:00:32.858Z,29.20
2018-07-12T02:03:00.706Z,29.37
2018-07-12T02:05:28.653Z,29.60
2018-07-12T02:07:56.528Z,30.27
2018-07-12T02:10:24.384Z,29.83
2018-07-12T02:12:52.235Z,33.03
2018-07-12T02:15:20.143Z,32.47
2018-07-12T02:17:48.034Z,33.43
2018-07-12T02:20:15.904Z,32.23
2018-07-12T02:22:43.754Z,36.10
2018-07-12T02:25:11.638Z,34.67
2018-07-12T02:27:39.495Z,35.53
2018-07-12T02:30:07.578Z,34.37
2018-07-12T02:32:35.424Z,35.77
2018-07-12T02:35:03.881Z,36.50
2018-07-12T02:37:31.823Z,38.33
2018-07-12T02:39:59.690Z,37.10
2018-07-12T02:42:27.641Z,36.67
2018-07-12T02:44:55.492Z,37.23
2018-07-12T02:47:23.416Z,37.87
2018-07-12T02:49:51.273Z,37.80
2018-07-12T02:52:19.141Z,36.70
2018-07-12T02:54:47.082Z,37.87
2018-07-12T02:57:14.976Z,38.00
2018-07-12T02:59:42.838Z,39.77
2018-07-12T03:02:10.740Z,39.90
2018-07-12T03:04:38.685Z,39.30
2018-07-12T03:07:06.557Z,37.33
2018-07-12T03:09:34.443Z,37.63
2018-07-12T03:12:03.313Z,38.13
2018-07-12T03:14:31.196Z,37.07
2018-07-12T03:16:59.058Z,37.47
2018-07-12T03:19:26.946Z,36.23
2018-07-12T03:21:55.015Z,37.87
2018-07-12T03:24:22.866Z,37.13
2018-07-12T03:26:51.328Z,36.67
2018-07-12T03:29:19.237Z,37.47
2018-07-12T03:31:47.091Z,35.80
2018-07-12T03:34:17.947Z,34.90
2018-07-12T03:36:45.833Z,35.87
2018-07-12T03:39:13.697Z,35.57
2018-07-12T03:41:41.563Z,35.43
2018-07-12T03:44:09.699Z,35.33
2018-07-12T03:46:37.593Z,35.70
2018-07-12T03:49:05.474Z,35.13
2018-07-12T03:51:33.325Z,35.43
2018-07-12T03:54:01.227Z,37.57
2018-07-12T03:56:29.917Z,34.83
2018-07-12T03:58:57.899Z,35.03
2018-07-12T04:01:25.809Z,34.23
2018-07-12T04:03:53.780Z,35.70
2018-07-12T04:06:21.628Z,36.80
2018-07-12T04:08:50.950Z,37.13
2018-07-12T04:11:18.792Z,35.00
2018-07-12T04:13:46.684Z,35.73
2018-07-12T04:16:14.543Z,35.93
2018-07-12T04:18:42.428Z,35.40
2018-07-12T04:21:11.237Z,34.43
2018-07-12T04:23:39.086Z,33.40
2018-07-12T04:26:07.025Z,33.87
2018-07-12T04:28:34.922Z,34.43
2018-07-12T04:31:03.378Z,33.97
2018-07-12T04:33:31.259Z,34.60
2018-07-12T04:35:59.111Z,35.37
2018-07-12T04:38:27.018Z,31.40
2018-07-12T04:40:54.870Z,34.27
2018-07-12T04:43:22.725Z,33.63
2018-07-12T04:45:50.584Z,36.37
2018-07-12T04:48:18.578Z,33.47
2018-07-12T04:50:46.450Z,33.13
2018-07-12T04:53:14.354Z,34.67
2018-07-12T04:55:42.212Z,33.33
2018-07-12T04:58:10.137Z,35.40
2018-07-12T05:00:37.994Z,34.97
2018-07-12T05:03:05.847Z,34.10
2018-07-12T05:05:33.733Z,33.40
2018-07-12T05:08:02.078Z,34.00
2018-07-12T05:10:30.359Z,33.50
2018-07-12T05:12:58.235Z,33.20
2018-07-12T05:15:26.188Z,32.63
2018-07-12T05:17:54.153Z,32.47
2018-07-12T05:20:22.033Z,31.33
2018-07-12T05:22:50.797Z,33.80
2018-07-12T05:25:18.658Z,32.40
2018-07-12T05:27:46.532Z,30.87
2018-07-12T05:30:14.384Z,32.83
2018-07-12T05:32:42.267Z,34.60
2018-07-12T05:35:10.383Z,33.40
2018-07-12T05:37:39.359Z,33.13
2018-07-12T05:40:08.323Z,33.17
2018-07-12T05:42:37.377Z,31.27
2018-07-12T05:45:06.487Z,33.07
2018-07-12T05:47:35.564Z,32.13
2018-07-12T05:50:04.599Z,30.67
2018-07-12T05:52:33.583Z,32.20
2018-07-12T05:55:16.828Z,29.67
2018-07-12T05:57:46.339Z,30.23
2018-07-12T06:00:15.812Z,31.03
2018-07-12T06:02:44.833Z,29.87
2018-07-12T06:05:13.818Z,27.77
2018-07-12T06:07:42.761Z,28.73
2018-07-12T06:10:11.754Z,28.20
2018-07-12T06:12:40.746Z,27.30
2018-07-12T06:15:09.479Z,25.37
2018-07-12T06:17:38.373Z,25.40
2018-07-12T06:20:08.674Z,23.83
2018-07-12T06:22:37.708Z,23.83
2018-07-12T06:25:07.086Z,22.93
2018-07-12T06:27:36.180Z,21.80
2018-07-12T06:30:05.858Z,21.57
2018-07-12T06:32:34.793Z,22.00
2018-07-12T06:35:03.861Z,20.20
2018-07-12T06:37:32.865Z,21.17
2018-07-12T06:40:01.959Z,21.20
2018-07-12T06:42:31.063Z,21.60
2018-07-12T06:45:01.077Z,20.30
2018-07-12T06:47:30.171Z,19.60
2018-07-12T06:49:59.160Z,17.50
2018-07-12T06:52:28.156Z,17.60
2018-07-12T06:54:57.273Z,16.03
2018-07-12T06:57:26.429Z,15.40
2018-07-12T06:59:55.323Z,14.80
2018-07-12T07:02:24.324Z,14.63
2018-07-12T07:04:53.307Z,14.63
2018-07-12T07:07:22.321Z,14.33
2018-07-12T07:09:51.319Z,13.87
2018-07-12T07:12:20.301Z,13.70
2018-07-12T07:14:49.396Z,13.73
2018-07-12T07:17:18.370Z,12.20
2018-07-12T07:19:47.384Z,13.37
2018-07-12T07:22:16.369Z,13.57
2018-07-12T07:24:45.452Z,12.80
2018-07-12T07:27:14.238Z,12.43
2018-07-12T07:29:43.195Z,12.17
2018-07-12T07:32:12.165Z,11.47
2018-07-12T07:34:41.175Z,10.97
2018-07-12T07:37:10.296Z,10.13
2018-07-12T07:39:39.279Z,10.47
2018-07-12T07:42:08.307Z,9.63
2018-07-12T07:44:37.337Z,9.90
2018-07-12T07:47:06.399Z,9.50
2018-07-12T07:49:35.492Z,7.80
2018-07-12T07:52:04.454Z,8.97
2018-07-12T07:54:33.854Z,8.20
2018-07-12T07:57:02.943Z,9.60
2018-07-12T07:59:31.858Z,7.73
2018-07-12T08:02:00.851Z,7.47
2018-07-12T08:04:29.933Z,7.60
2018-07-12T08:06:58.954Z,7.67
2018-07-12T08:09:28.057Z,8.10
2018-07-12T08:11:57.018Z,7.37
2018-07-12T08:14:25.958Z,8.33
2018-07-12T08:16:55.450Z,7.10
2018-07-12T08:19:24.429Z,7.13
2018-07-12T08:22:05.781Z,6.90
2018-07-12T08:24:35.317Z,6.37
2018-07-12T08:27:04.933Z,6.93
2018-07-12T08:29:34.353Z,5.87
2018-07-12T08:32:04.463Z,6.07
2018-07-12T08:34:33.851Z,6.60
2018-07-12T08:37:02.876Z,5.93
2018-07-12T08:39:31.836Z,5.93
2018-07-12T08:42:00.804Z,6.00
2018-07-12T08:44:29.766Z,6.23
2018-07-12T08:46:58.837Z,5.83
2018-07-12T08:49:28.285Z,5.93
2018-07-12T08:51:57.278Z,6.10
2018-07-12T08:54:26.280Z,5.90
2018-07-12T08:56:55.257Z,5.60
2018-07-12T08:59:24.235Z,5.50
2018-07-12T09:01:53.264Z,5.13
2018-07-12T09:04:22.189Z,4.97
2018-07-12T09:06:51.166Z,4.78
2018-07-12T09:09:20.215Z,5.20
2018-07-12T09:11:49.247Z,5.05
2018-07-12T09:14:18.228Z,4.60
2018-07-12T09:16:47.252Z,4.58
2018-07-12T09:19:16.253Z,4.25
2018-07-12T09:21:45.480Z,4.20
2018-07-12T09:24:14.435Z,4.30
2018-07-12T09:26:43.423Z,4.33
2018-07-12T09:29:12.579Z,4.30
2018-07-12T09:31:41.625Z,4.60
2018-07-12T09:34:10.649Z,4.55
2018-07-12T09:36:39.651Z,3.93
2018-07-12T09:39:08.892Z,3.60
2018-07-12T09:41:37.835Z,3.73
2018-07-12T09:44:06.803Z,3.30
2018-07-12T09:46:35.748Z,3.10
2018-07-12T09:49:04.876Z,2.98
2018-07-12T09:51:33.802Z,2.98
2018-07-12T09:54:02.759Z,2.90
2018-07-12T09:56:43.157Z,2.37
2018-07-12T09:59:12.191Z,2.60
2018-07-12T10:01:46.170Z,2.62
2018-07-12T10:04:15.087Z,2.72
2018-07-12T10:06:49.362Z,2.65
2018-07-12T10:09:24.682Z,2.70
2018-07-12T10:13:02.991Z,2.15
2018-07-12T10:15:37.282Z,2.37
2018-07-12T10:18:11.769Z,2.45
2018-07-12T10:20:40.734Z,2.60
2018-07-12T10:23:09.725Z,2.80
2018-07-12T10:25:38.714Z,2.77
2018-07-12T10:28:07.789Z,2.50
2018-07-12T10:30:36.742Z,2.77
2018-07-12T10:33:05.789Z,2.45
2018-07-12T10:35:35.805Z,2.50
2018-07-12T10:38:04.926Z,2.72
2018-07-12T10:40:33.905Z,2.27
2018-07-12T10:43:02.970Z,2.52
2018-07-12T10:45:31.917Z,2.33
2018-07-12T10:48:00.893Z,2.47
2018-07-12T10:50:29.978Z,2.30
2018-07-12T10:52:58.954Z,1.95
2018-07-12T10:55:27.892Z,2.42
2018-07-12T10:57:57.451Z,2.30
2018-07-12T11:00:26.485Z,2.10
2018-07-12T11:02:55.206Z,2.30
2018-07-12T11:05:24.094Z,2.27
2018-07-12T11:07:53.195Z,2.27
2018-07-12T11:10:22.232Z,2.25
2018-07-12T11:13:02.696Z,2.33
2018-07-12T11:15:31.693Z,2.43
2018-07-12T11:18:00.732Z,2.10
2018-07-12T11:20:29.799Z,2.25
2018-07-12T11:22:58.811Z,2.37
2018-07-12T11:25:27.796Z,2.40
2018-07-12T11:27:56.813Z,2.40
2018-07-12T11:30:25.913Z,2.17
2018-07-12T11:32:54.864Z,2.50
2018-07-12T11:35:23.833Z,2.42
2018-07-12T11:37:52.963Z,2.17
2018-07-12T11:40:21.919Z,2.08
2018-07-12T11:42:51.045Z,2.22
2018-07-12T11:45:20.024Z,1.93
2018-07-12T11:47:49.013Z,2.37
2018-07-12T11:50:17.996Z,2.25
2018-07-12T11:52:47.049Z,2.10
2018-07-12T11:55:16.031Z,2.08
2018-07-12T11:57:44.992Z,2.40
2018-07-12T12:00:13.971Z,1.90
2018-07-12T12:02:42.939Z,1.80
2018-07-12T12:05:11.865Z,2.25
2018-07-12T12:07:40.861Z,2.22
2018-07-12T12:10:09.830Z,2.00
2018-07-12T12:12:38.804Z,2.10
2018-07-12T12:15:07.800Z,2.17
2018-07-12T12:17:36.868Z,1.98
2018-07-12T12:20:05.843Z,2.15
2018-07-12T12:22:34.829Z,2.10
2018-07-12T12:25:03.923Z,2.00
2018-07-12T12:27:32.937Z,2.30
2018-07-12T12:30:01.960Z,2.02
2018-07-12T12:32:31.000Z,2.10
2018-07-12T12:34:59.723Z,1.87
2018-07-12T12:37:28.605Z,2.10
2018-07-12T12:39:57.624Z,1.77
2018-07-12T12:42:26.708Z,2.10
2018-07-12T12:44:56.140Z,2.20
2018-07-12T12:47:25.224Z,2.30
2018-07-12T12:49:54.288Z,2.20
2018-07-12T12:52:23.240Z,2.03
2018-07-12T12:54:52.206Z,2.00
2018-07-12T12:57:21.209Z,2.13
2018-07-12T12:59:50.483Z,2.10
2018-07-12T13:02:19.150Z,1.90
2018-07-12T13:04:48.087Z,1.90
2018-07-12T13:07:17.064Z,2.00
2018-07-12T13:09:46.015Z,2.17
2018-07-12T13:12:15.087Z,2.17
2018-07-12T13:14:44.994Z,2.17
2018-07-12T13:17:13.968Z,1.60
2018-07-12T13:19:43.280Z,2.00
2018-07-12T13:22:12.216Z,1.67
2018-07-12T13:24:41.300Z,1.90
2018-07-12T13:27:10.247Z,2.07
2018-07-12T13:29:39.203Z,1.90
2018-07-12T13:32:08.176Z,1.53
2018-07-12T13:34:37.170Z,1.73
2018-07-12T13:37:06.149Z,2.00
2018-07-12T13:39:35.182Z,2.00
2018-07-12T13:42:04.235Z,2.20
2018-07-12T13:44:33.209Z,1.90
2018-07-12T13:47:02.176Z,1.80
2018-07-12T13:49:31.148Z,2.00
2018-07-12T13:52:00.173Z,2.20
2018-07-12T13:54:29.156Z,1.90
2018-07-12T13:56:58.115Z,2.03
2018-07-12T13:59:27.124Z,1.90
2018-07-12T14:01:56.117Z,1.70
2018-07-12T14:04:25.077Z,2.10
2018-07-12T14:06:54.068Z,1.83
2018-07-12T14:09:23.120Z,1.90
2018-07-12T14:11:52.327Z,1.97
2018-07-12T14:14:21.307Z,2.13
2018-07-12T14:16:50.281Z,2.10
2018-07-12T14:19:19.245Z,1.80
2018-07-12T14:21:48.248Z,2.07
2018-07-12T14:24:17.215Z,2.20
2018-07-12T14:26:46.181Z,3.72
2018-07-12T14:29:15.212Z,5.27
2018-07-12T14:31:44.190Z,3.77
2018-07-12T14:34:13.191Z,4.40
2018-07-12T14:36:42.292Z,2.33
2018-07-12T14:39:11.967Z,2.17
2018-07-12T14:41:40.588Z,2.35
2018-07-12T14:44:09.525Z,2.00
2018-07-12T14:46:38.492Z,2.20
2018-07-12T14:49:07.459Z,1.90
2018-07-12T14:51:36.502Z,1.80
2018-07-12T14:54:05.523Z,2.37
2018-07-12T14:56:34.580Z,1.70
2018-07-12T14:59:03.865Z,2.00
2018-07-12T15:01:33.201Z,2.67
2018-07-12T15:04:02.162Z,1.93
2018-07-12T15:06:31.255Z,2.90
2018-07-12T15:09:00.304Z,2.40
2018-07-12T15:11:29.206Z,2.93
2018-07-12T15:13:58.222Z,3.07
2018-07-12T15:16:27.171Z,3.10
2018-07-12T15:18:56.716Z,3.10
2018-07-12T15:21:25.720Z,2.70
2018-07-12T15:23:54.724Z,2.93
2018-07-12T15:26:24.075Z,3.50
2018-07-12T15:28:52.963Z,3.87
2018-07-12T15:31:21.938Z,3.30
2018-07-12T15:33:50.959Z,3.70
2018-07-12T15:36:19.941Z,3.60
2018-07-12T15:38:49.046Z,3.10
2018-07-12T15:41:18.030Z,3.77
2018-07-12T15:43:47.025Z,4.20
2018-07-12T15:46:16.040Z,3.87
2018-07-12T15:48:45.004Z,4.00
2018-07-12T15:51:14.120Z,3.47
2018-07-12T15:53:43.117Z,3.37
2018-07-12T15:56:12.243Z,3.20
2018-07-12T15:58:41.426Z,3.50
2018-07-12T16:01:10.413Z,3.47
2018-07-12T16:03:39.082Z,3.43
2018-07-12T16:06:08.061Z,3.33
2018-07-12T16:08:37.179Z,3.43
2018-07-12T16:11:06.300Z,3.37
2018-07-12T16:13:35.510Z,3.70
2018-07-12T16:16:04.720Z,3.43
2018-07-12T16:18:33.807Z,3.13
2018-07-12T16:21:03.253Z,3.03
2018-07-12T16:23:32.213Z,3.07
2018-07-12T16:26:01.257Z,3.37
2018-07-12T16:28:30.558Z,3.73
2018-07-12T16:30:59.706Z,3.50
2018-07-12T16:33:28.828Z,3.33
2018-07-12T16:35:57.826Z,3.07
2018-07-12T16:38:26.840Z,3.33
2018-07-12T16:40:55.897Z,3.63
2018-07-12T16:43:24.935Z,4.93
2018-07-12T16:45:54.010Z,4.13
2018-07-12T16:48:23.096Z,3.77
2018-07-12T16:50:58.785Z,3.67
2018-07-12T16:53:27.867Z,3.40
2018-07-12T16:55:56.876Z,3.70
2018-07-12T16:58:25.951Z,3.23
2018-07-12T17:00:54.985Z,3.03
2018-07-12T17:03:24.007Z,2.43
2018-07-12T17:05:53.126Z,2.97
2018-07-12T17:08:22.235Z,2.40
2018-07-12T17:10:51.262Z,2.20
2018-07-12T17:13:21.522Z,2.40
2018-07-12T17:15:51.105Z,3.00
2018-07-12T17:18:21.295Z,2.33
2018-07-12T17:20:50.282Z,2.80
2018-07-12T17:23:19.257Z,2.70
2018-07-12T17:25:47.899Z,2.67
2018-07-12T17:28:17.369Z,2.60
2018-07-12T17:30:46.481Z,3.15
2018-07-12T17:33:15.490Z,3.30
2018-07-12T17:35:44.908Z,3.30
2018-07-12T17:38:13.925Z,3.40
2018-07-12T17:40:43.060Z,5.20
2018-07-12T17:43:12.443Z,4.43
2018-07-12T17:45:41.501Z,3.80
2018-07-12T17:48:10.615Z,4.97
2018-07-12T17:50:39.734Z,5.67
2018-07-12T17:53:09.009Z,6.00
2018-07-12T17:55:38.044Z,4.97
2018-07-12T17:58:08.095Z,5.63
2018-07-12T18:00:37.116Z,5.50
2018-07-12T18:03:06.369Z,5.00
2018-07-12T18:05:35.559Z,5.23
2018-07-12T18:08:04.597Z,5.33
2018-07-12T18:10:34.500Z,6.00
2018-07-12T18:13:03.640Z,5.67
2018-07-12T18:15:32.727Z,5.80
2018-07-12T18:18:01.750Z,5.53
2018-07-12T18:20:30.805Z,6.43
2018-07-12T18:22:59.945Z,6.20
2018-07-12T18:25:28.930Z,6.47
2018-07-12T18:27:57.886Z,6.73
2018-07-12T18:30:26.909Z,6.93
2018-07-12T18:32:56.007Z,6.13
2018-07-12T18:35:25.088Z,6.50
2018-07-12T18:37:54.242Z,6.43
2018-07-12T18:40:23.278Z,6.67
2018-07-12T18:42:52.387Z,7.03
2018-07-12T18:45:21.549Z,6.00
2018-07-12T18:47:50.574Z,5.37
2018-07-12T18:50:19.628Z,6.57
2018-07-12T18:52:48.676Z,6.20
2018-07-12T18:55:17.705Z,6.00
2018-07-12T18:57:46.798Z,6.93
2018-07-12T19:00:15.798Z,5.97
2018-07-12T19:02:44.905Z,5.97
2018-07-12T19:05:13.909Z,6.40
2018-07-12T19:07:42.925Z,6.73
2018-07-12T19:10:11.899Z,6.43
2018-07-12T19:12:41.112Z,5.73
2018-07-12T19:15:10.297Z,6.20
2018-07-12T19:17:40.274Z,5.30
2018-07-12T19:20:09.420Z,5.70
2018-07-12T19:22:38.359Z,5.87
2018-07-12T19:25:07.400Z,5.37
2018-07-12T19:27:36.527Z,6.17
2018-07-12T19:30:05.725Z,5.77
2018-07-12T19:32:34.752Z,6.40
2018-07-12T19:35:04.030Z,5.67
2018-07-12T19:37:32.906Z,5.73
2018-07-12T19:40:02.095Z,5.83
2018-07-12T19:42:31.096Z,6.47
2018-07-12T19:45:00.344Z,5.83
2018-07-12T19:50:20.764Z,6.03
2018-07-12T19:52:49.704Z,6.20
2018-07-12T19:55:18.735Z,5.43
2018-07-12T19:57:47.764Z,6.40
2018-07-12T20:00:16.552Z,6.50
2018-07-12T20:02:45.431Z,6.33
2018-07-12T20:05:14.401Z,6.13
2018-07-12T20:07:43.405Z,5.93
2018-07-12T20:10:12.403Z,6.20
2018-07-12T20:12:41.376Z,5.97
2018-07-12T20:15:10.360Z,5.87
2018-07-12T20:17:39.469Z,6.00
2018-07-12T20:20:08.951Z,5.57
2018-07-12T20:22:37.944Z,5.70
2018-07-12T20:25:06.990Z,5.73
2018-07-12T20:27:36.165Z,5.10
2018-07-12T20:30:05.968Z,5.77
2018-07-12T20:32:35.071Z,5.43
2018-07-12T20:35:04.190Z,5.60
2018-07-12T20:37:33.244Z,5.43
2018-07-12T20:40:02.248Z,6.00
2018-07-12T20:42:30.909Z,5.27
2018-07-12T20:44:59.978Z,5.40
2018-07-12T20:47:28.956Z,6.13
2018-07-12T20:49:57.948Z,6.57
2018-07-12T20:52:26.999Z,7.13
2018-07-12T20:54:56.050Z,6.17
2018-07-12T20:57:25.095Z,6.43
2018-07-12T20:59:54.104Z,6.27
2018-07-12T21:02:23.750Z,6.47
2018-07-12T21:04:52.620Z,6.10
2018-07-12T21:07:21.762Z,6.03
2018-07-12T21:09:50.846Z,5.83
2018-07-12T21:12:19.833Z,6.50
2018-07-12T21:14:48.831Z,6.90
2018-07-12T21:17:18.164Z,5.97
2018-07-12T21:19:47.161Z,6.10
2018-07-12T21:22:16.166Z,6.50
2018-07-12T21:24:45.126Z,6.20
2018-07-12T21:27:14.149Z,6.30
2018-07-12T21:29:43.232Z,6.27
2018-07-12T21:32:12.244Z,6.23
2018-07-12T21:34:41.612Z,6.50
2018-07-12T21:37:10.583Z,6.07
2018-07-12T21:39:40.111Z,6.23
2018-07-12T21:42:09.134Z,6.47
2018-07-12T21:44:38.230Z,6.80
2018-07-12T21:47:07.171Z,7.00
2018-07-12T21:49:36.221Z,6.73
2018-07-12T21:52:05.243Z,7.20
2018-07-12T21:54:34.203Z,6.73
2018-07-12T21:57:03.180Z,6.97
2018-07-12T21:59:32.214Z,6.27
2018-07-12T22:02:01.227Z,6.50
2018-07-12T22:04:30.307Z,6.93
2018-07-12T22:07:08.436Z,7.07
2018-07-12T22:09:37.447Z,6.47
2018-07-12T22:12:06.575Z,7.33
2018-07-12T22:14:35.659Z,6.70
2018-07-12T22:17:04.742Z,7.10
2018-07-12T22:19:33.764Z,6.67
2018-07-12T22:22:02.999Z,7.23
2018-07-12T22:24:32.024Z,7.13
2018-07-12T22:27:01.008Z,6.83
2018-07-12T22:29:30.078Z,7.37
2018-07-12T22:31:59.547Z,7.77
2018-07-12T22:34:28.661Z,8.37
2018-07-12T22:36:58.533Z,7.00
2018-07-12T22:39:27.569Z,6.67
2018-07-12T22:41:56.552Z,8.17
2018-07-12T22:44:25.633Z,7.23
2018-07-12T22:46:54.607Z,7.77
2018-07-12T22:49:24.358Z,7.57
2018-07-12T22:51:53.860Z,7.17
2018-07-12T22:54:22.971Z,6.77
2018-07-12T22:56:52.259Z,7.13
2018-07-12T22:59:21.229Z,7.23
2018-07-12T23:01:50.244Z,8.13
2018-07-12T23:04:19.347Z,7.80
2018-07-12T23:06:48.471Z,7.43
2018-07-12T23:09:17.483Z,7.07
2018-07-12T23:11:46.467Z,6.57
2018-07-12T23:14:16.091Z,6.90
2018-07-12T23:16:45.068Z,7.17
2018-07-12T23:19:14.072Z,6.87
2018-07-12T23:21:43.567Z,6.70
2018-07-12T23:24:12.829Z,7.17
2018-07-12T23:26:42.031Z,7.07
2018-07-12T23:29:11.050Z,7.10
2018-07-12T23:31:40.139Z,7.00
2018-07-12T23:34:09.202Z,7.50
2018-07-12T23:36:37.869Z,7.60
2018-07-12T23:39:08.150Z,7.50
2018-07-12T23:41:37.129Z,7.53
2018-07-12T23:44:06.234Z,8.23
2018-07-12T23:46:35.201Z,8.80
2018-07-12T23:49:04.935Z,8.97
2018-07-12T23:51:34.681Z,8.80
2018-07-12T23:54:03.703Z,9.57
2018-07-12T23:56:32.643Z,9.57
2018-07-12T23:59:01.637Z,10.17
